Terminal Aerodrome Forecast
Issued by NWS Bismarck, ND

Home | Current Version | Previous Version | Graphics & Text | Print | Product List | Glossary On
Versions: 1 2 3 4 5 6 7 8 9 10 11 12 13 14 15 16 17 18 19
000
FTUS43 KBIS 140808 AAB
TAFISN
TAF AMD
KISN 140808Z 1408/1506 02008KT P6SM OVC003
     FM141600 01009KT P6SM FEW008 SCT025
     FM142000 31011KT P6SM SKC
     FM150000 25006KT P6SM FEW045 FEW250=

USA.gov is the U.S. government's official web portal to all federal, state and local government web resources and services.